Terminal Aerodrome Forecast
Issued by NWS

Home | Current Version | Previous Version | Text Only | Print | Product List | Glossary On
Versions: 1 2 3 4 5 6 7 8 9 10 11 12 13 14 15 16 17 18 19 20 21 22 23 24 25 26
000
FTUS43 KDVN 021100
TAFCID
TAF
KCID 021121Z 0212/0312 27008KT P6SM FEW250
     FM022000 14008KT P6SM BKN080
     FM030600 14014KT 4SM -SNPL OVC010
     FM030900 14015KT 4SM FZRA OVC009=

USA.gov is the U.S. government's official web portal to all federal, state and local government web resources and services.